Time;durP1;ratioP1;P1;durP2;ratioP2;P2;SDS_P1;SDS_P2;PMS_P1;PMS_P2;Temp;Humidity;BMP_temperature;BMP_pressure;BME280_temperature;BME280_humidity;BME280_pressure;Samples;Min_cycle;Max_cycle;Signal;HPM_P1;HPM_P2
2022/11/15 00:01:38;;;;;;;27.55;14.80;;;;;;;1.35;73.72;93996.03;5091877;28;20057;-34
2022/11/15 00:04:04;;;;;;;24.33;14.07;;;;;;;1.24;74.38;93995.88;5091890;28;20063;-34
2022/11/15 00:06:29;;;;;;;25.35;14.60;;;;;;;0.99;74.96;93975.56;5091655;28;20031;-34
2022/11/15 00:08:58;;;;;;;29.65;16.42;;;;;;;0.98;75.58;93984.94;5092075;28;20020;-34
2022/11/15 00:11:23;;;;;;;53.22;25.27;;;;;;;0.93;75.26;93984.84;5091815;28;20515;-34
2022/11/15 00:13:49;;;;;;;28.92;15.27;;;;;;;0.98;75.05;93984.94;5091585;28;20032;-34
2022/11/15 00:16:14;;;;;;;41.83;20.05;;;;;;;0.96;75.46;93987.38;5091587;28;20036;-34
2022/11/15 00:18:40;;;;;;;51.35;24.38;;;;;;;1.19;74.87;93985.72;5091565;28;20016;-34
2022/11/15 00:21:08;;;;;;;51.58;27.73;;;;;;;1.15;75.18;93985.88;5091580;28;20048;-34
2022/11/15 00:23:34;;;;;;;49.08;23.83;;;;;;;1.21;74.82;93981.25;5073801;28;20096;-34
2022/11/15 00:25:59;;;;;;;60.75;29.17;;;;;;;1.26;74.95;93982.56;5091165;28;20111;-34
2022/11/15 00:28:25;;;;;;;73.20;34.17;;;;;;;1.27;74.74;93979.38;5091544;28;20027;-34
2022/11/15 00:30:51;;;;;;;64.35;32.28;;;;;;;1.33;74.14;93974.75;5088605;28;20510;-34
2022/11/15 00:33:17;;;;;;;51.28;27.02;;;;;;;1.30;74.89;93972.25;5091285;28;20032;-34
2022/11/15 00:35:42;;;;;;;31.55;17.63;;;;;;;1.40;74.16;93971.63;5091564;28;20111;-34
2022/11/15 00:38:10;;;;;;;30.40;16.33;;;;;;;1.39;73.08;93969.38;5091459;28;20024;-34
2022/11/15 00:40:36;;;;;;;52.55;27.95;;;;;;;1.26;72.75;93958.09;5091032;28;20024;-34
2022/11/15 00:43:01;;;;;;;54.90;27.67;;;;;;;1.19;73.79;93958.50;5090917;28;20105;-34
2022/11/15 00:45:27;;;;;;;58.33;32.20;;;;;;;1.26;74.07;93960.81;5090554;28;20070;-34
2022/11/15 00:47:52;;;;;;;56.45;24.40;;;;;;;1.39;74.34;93953.03;5090998;28;20050;-34
2022/11/15 00:50:18;;;;;;;63.40;23.25;;;;;;;1.12;75.77;93951.50;5091157;28;20020;-34
2022/11/15 00:52:44;;;;;;;60.55;21.73;;;;;;;1.10;76.28;93951.25;5091203;28;20561;-34
2022/11/15 00:55:18;;;;;;;48.20;22.17;;;;;;;1.26;75.50;93949.94;5091209;28;20035;-34
2022/11/15 00:57:44;;;;;;;56.65;20.95;;;;;;;1.27;74.96;93946.75;5091267;28;20024;-34
2022/11/15 01:00:10;;;;;;;31.73;17.02;;;;;;;1.23;74.65;93954.38;5090875;28;20089;-34
2022/11/15 01:02:36;;;;;;;33.85;17.83;;;;;;;1.04;75.13;93950.41;5090722;28;20503;-34
2022/11/15 01:05:01;;;;;;;26.52;15.85;;;;;;;0.90;74.99;93958.63;5091001;28;20027;-34
2022/11/15 01:07:27;;;;;;;36.70;17.27;;;;;;;0.74;75.48;93954.44;5091258;28;20023;-34
2022/11/15 01:09:52;;;;;;;52.47;16.40;;;;;;;0.66;75.22;93950.63;5090667;28;20032;-34
2022/11/15 01:12:18;;;;;;;35.40;16.60;;;;;;;0.72;75.43;93954.16;5090647;28;20070;-34
2022/11/15 01:14:43;;;;;;;30.25;14.90;;;;;;;0.82;75.32;93952.09;5090580;28;20059;-33
2022/11/15 01:17:09;;;;;;;30.42;15.48;;;;;;;0.92;75.16;93956.91;5090543;28;20031;-34
2022/11/15 01:19:34;;;;;;;30.80;16.70;;;;;;;0.91;75.60;93958.13;5090902;28;20023;-34
2022/11/15 01:21:59;;;;;;;31.63;16.77;;;;;;;0.97;75.55;93953.53;5090494;28;20510;-34
2022/11/15 01:24:25;;;;;;;26.77;16.58;;;;;;;0.98;75.51;93957.75;5090766;28;20024;-34
2022/11/15 01:26:50;;;;;;;32.30;15.55;;;;;;;1.04;75.45;93955.84;5090084;28;20055;-34
2022/11/15 01:29:16;;;;;;;27.20;14.55;;;;;;;1.13;75.18;93955.72;5090146;28;20107;-34
2022/11/15 01:31:41;;;;;;;24.85;15.20;;;;;;;1.23;74.61;93959.81;5090680;28;20024;-34
2022/11/15 01:34:07;;;;;;;20.65;12.27;;;;;;;1.41;74.39;93953.31;5090395;28;20404;-34
2022/11/15 01:36:32;;;;;;;28.70;15.45;;;;;;;1.40;74.68;93949.88;5090683;28;20035;-34
2022/11/15 01:38:58;;;;;;;34.38;17.00;;;;;;;1.35;74.41;93953.25;5090242;28;20484;-34
2022/11/15 01:41:26;;;;;;;23.50;13.52;;;;;;;1.35;74.57;93953.25;5090551;28;20050;-34
2022/11/15 01:43:53;;;;;;;28.33;14.07;;;;;;;1.19;75.13;93956.53;5090128;28;20424;-34
2022/11/15 01:46:29;;;;;;;33.65;17.08;;;;;;;1.20;74.19;93944.44;5090277;28;20556;-34
2022/11/15 01:48:57;;;;;;;29.15;14.60;;;;;;;1.17;74.13;93937.22;5072139;28;20063;-34
2022/11/15 01:51:25;;;;;;;17.92;12.38;;;;;;;1.16;74.73;93941.16;5090319;28;20024;-34
2022/11/15 01:53:53;;;;;;;27.75;13.82;;;;;;;1.35;74.22;93945.09;5090122;28;20053;-34
2022/11/15 01:56:25;;;;;;;26.13;13.45;;;;;;;1.53;73.60;93949.50;5092046;28;20024;-34
2022/11/15 01:58:53;;;;;;;22.90;11.27;;;;;;;1.59;73.74;93941.41;5076605;28;20377;-34
2022/11/15 02:01:19;;;;;;;20.02;11.48;;;;;;;1.42;73.97;93922.94;5076464;28;20024;-34
2022/11/15 02:03:50;;;;;;;15.77;10.65;;;;;;;1.57;74.41;93941.13;5094565;28;20517;-34
2022/11/15 02:06:15;;;;;;;17.80;9.57;;;;;;;1.46;75.18;93942.50;5059389;28;20112;-34
2022/11/15 02:08:41;;;;;;;15.55;10.13;;;;;;;1.51;74.80;93939.13;5093940;28;20095;-34
2022/11/15 02:11:10;;;;;;;30.33;13.02;;;;;;;1.32;74.68;93942.59;5094372;28;20035;-34
2022/11/15 02:13:36;;;;;;;34.70;16.55;;;;;;;1.20;75.85;93936.28;5094381;28;20039;-34
2022/11/15 02:16:24;;;;;;;26.60;14.77;;;;;;;1.16;76.14;93934.97;5076200;28;20385;-34
2022/11/15 02:19:18;;;;;;;44.83;10.30;;;;;;;1.04;77.93;93938.78;5093994;28;20020;-34
2022/11/15 02:21:50;;;;;;;30.02;9.38;;;;;;;1.02;78.98;93933.81;5066656;28;20028;-34
2022/11/15 02:24:29;;;;;;;48.22;9.60;;;;;;;1.11;79.63;93930.97;5075817;28;20031;-34
2022/11/15 02:26:57;;;;;;;;;;;;;;;1.17;80.79;93928.31;5075907;28;20039;-34
2022/11/15 02:29:22;;;;;;;24.20;11.05;;;;;;;1.35;81.06;93941.63;5093995;28;19916;-34
2022/11/15 02:32:06;;;;;;;26.25;10.98;;;;;;;1.48;80.72;93944.75;5093953;28;20134;-34
2022/11/15 02:34:37;;;;;;;24.75;11.50;;;;;;;1.60;80.01;93938.22;5093821;28;20058;-34
2022/11/15 02:37:07;;;;;;;33.03;13.48;;;;;;;1.61;80.08;93944.38;5075837;28;20032;-34
2022/11/15 02:39:50;;;;;;;40.45;16.10;;;;;;;1.83;79.97;93937.19;5075467;28;20020;-34
2022/11/15 02:45:17;;;;;;;32.28;15.20;;;;;;;2.07;79.25;93934.94;5078046;28;20163;-34
2022/11/15 02:47:48;;;;;;;68.72;16.35;;;;;;;2.09;78.90;93932.50;5075391;28;20024;-34
2022/11/15 02:50:17;;;;;;;49.40;14.00;;;;;;;2.00;79.13;93927.22;5075560;28;20043;-34
2022/11/15 02:52:46;;;;;;;43.83;13.88;;;;;;;1.95;78.84;93908.13;5075437;28;20035;-34
2022/11/15 02:55:29;;;;;;;;;;;;;;;2.11;79.07;93930.03;5093788;28;20090;-34
2022/11/15 02:58:22;;;;;;;41.58;13.25;;;;;;;2.20;79.08;93934.56;5093491;28;19911;-34
2022/11/15 03:01:29;;;;;;;49.80;14.45;;;;;;;2.23;78.91;93931.59;5092998;28;20020;-34
2022/11/15 03:04:09;;;;;;;46.05;15.73;;;;;;;2.30;78.95;93925.72;5039276;28;20036;-34
2022/11/15 03:06:45;;;;;;;38.40;13.23;;;;;;;2.35;78.73;93921.56;5092686;28;20389;-34
2022/11/15 03:09:11;;;;;;;41.88;14.18;;;;;;;2.29;79.18;93923.50;5074991;28;20099;-34
2022/11/15 03:11:41;;;;;;;58.13;17.00;;;;;;;2.19;79.96;93924.88;5092921;28;20060;-34
2022/11/15 03:14:09;;;;;;;60.42;18.67;;;;;;;2.07;80.17;93923.31;5074927;28;20020;-34
2022/11/15 03:16:58;;;;;;;87.82;20.45;;;;;;;2.11;80.43;93921.09;5092709;28;20492;-34
2022/11/15 03:19:26;;;;;;;98.32;21.27;;;;;;;2.25;80.79;93915.53;5045637;28;20043;-34
2022/11/15 03:21:52;;;;;;;100.23;22.70;;;;;;;2.37;80.98;93910.91;5092723;28;20043;-34
2022/11/15 03:24:19;;;;;;;73.07;19.95;;;;;;;2.47;81.40;93908.78;5074648;28;20024;-34
2022/11/15 03:26:46;;;;;;;94.75;21.83;;;;;;;2.53;80.99;93906.81;5074159;28;20085;-34
2022/11/15 03:29:18;;;;;;;73.32;21.38;;;;;;;2.54;81.35;93900.88;5074526;28;20060;-34
2022/11/15 03:31:47;;;;;;;70.97;23.75;;;;;;;2.47;81.78;93903.31;5074646;28;20020;-34
2022/11/15 03:34:38;;;;;;;109.68;21.80;;;;;;;2.43;82.16;93910.94;5092475;28;20763;-34
2022/11/15 03:37:04;;;;;;;90.95;18.50;;;;;;;2.42;82.43;93917.63;5074453;28;20028;-34
2022/11/15 03:39:29;;;;;;;65.43;18.05;;;;;;;2.47;82.46;93906.75;5074366;28;20048;-34
2022/11/15 03:42:04;;;;;;;71.72;21.17;;;;;;;2.42;82.59;93906.75;5074351;28;20109;-34
2022/11/15 03:44:48;;;;;;;66.85;16.48;;;;;;;2.44;83.23;93913.19;5092157;28;20052;-34
2022/11/15 03:47:21;;;;;;;89.35;17.65;;;;;;;2.39;83.69;93905.72;5092285;28;20122;-34
2022/11/15 03:49:52;;;;;;;93.30;18.73;;;;;;;2.37;84.63;93910.91;5092225;28;20077;-34
2022/11/15 03:52:19;;;;;;;94.13;18.33;;;;;;;2.31;85.34;93904.69;5092386;28;20023;-34
2022/11/15 03:54:50;;;;;;;37.38;14.45;;;;;;;2.48;84.86;93902.06;5092321;28;20028;-34
2022/11/15 03:57:15;;;;;;;82.70;17.48;;;;;;;2.51;85.06;93895.66;5092108;28;20028;-34
2022/11/15 03:59:41;;;;;;;95.00;19.23;;;;;;;2.50;85.70;93888.69;5073928;28;20435;-34
2022/11/15 04:02:06;;;;;;;104.05;21.33;;;;;;;2.50;86.81;93896.88;5091991;28;20023;-34
2022/11/15 04:04:32;;;;;;;88.63;21.05;;;;;;;2.58;87.02;93885.03;5092052;28;20020;-34
2022/11/15 04:06:57;;;;;;;97.15;21.23;;;;;;;2.76;87.24;93879.19;5091837;28;20023;-34
2022/11/15 04:09:22;;;;;;;97.32;17.52;;;;;;;2.81;86.80;93886.69;5091692;28;20541;-34
2022/11/15 04:11:48;;;;;;;56.28;16.65;;;;;;;2.92;86.68;93881.25;5091772;28;20020;-34
2022/11/15 04:14:13;;;;;;;50.55;13.40;;;;;;;2.93;86.37;93885.47;5073615;28;20031;-34
2022/11/15 04:16:39;;;;;;;109.28;17.17;;;;;;;3.01;85.67;93880.31;5091790;28;20023;-34
2022/11/15 04:24:32;;;;;;;57.72;16.42;;;;;;;2.97;83.95;93880.53;5091807;28;20085;-34
2022/11/15 04:26:57;;;;;;;55.55;15.65;;;;;;;2.90;83.89;93875.53;5090915;28;20024;-34
2022/11/15 04:29:35;;;;;;;39.72;15.13;;;;;;;2.80;84.54;93877.00;5091485;28;20061;-34
2022/11/15 04:32:05;;;;;;;75.82;16.08;;;;;;;2.53;84.37;93877.59;5091410;28;20702;-34
2022/11/15 04:34:31;;;;;;;42.47;14.52;;;;;;;2.53;85.00;93885.00;5091299;28;20416;-34
2022/11/15 04:37:12;;;;;;;50.97;13.63;;;;;;;2.57;85.08;93877.34;5091353;28;20031;-34
2022/11/15 04:39:38;;;;;;;47.55;13.35;;;;;;;2.54;85.29;93878.31;5091560;28;20015;-34
2022/11/15 04:42:03;;;;;;;34.60;13.43;;;;;;;2.44;85.92;93880.50;5091131;28;20495;-34
2022/11/15 04:44:29;;;;;;;52.85;12.57;;;;;;;2.55;85.81;93871.66;5090970;28;20082;-34
2022/11/15 04:46:54;;;;;;;50.72;14.05;;;;;;;2.66;85.99;93877.91;5091039;28;20572;-34
2022/11/15 04:49:20;;;;;;;62.35;15.27;;;;;;;2.80;85.95;93876.25;5091015;28;20017;-34
2022/11/15 04:51:45;;;;;;;78.38;14.77;;;;;;;2.84;85.08;93869.31;5091246;28;20082;-34
2022/11/15 04:54:11;;;;;;;67.18;12.43;;;;;;;2.71;85.44;93868.25;5090774;28;20479;-34
2022/11/15 04:56:36;;;;;;;64.93;13.85;;;;;;;2.82;86.08;93866.34;5090830;28;20028;-34
2022/11/15 04:59:01;;;;;;;46.78;13.50;;;;;;;2.81;86.28;93872.28;5091085;28;20016;-34
2022/11/15 05:01:27;;;;;;;86.43;13.15;;;;;;;2.78;86.24;93857.66;5090945;28;20083;-34
2022/11/15 05:06:36;;;;;;;56.65;13.98;;;;;;;2.90;86.29;93856.44;5090777;28;20076;-34
2022/11/15 05:09:03;;;;;;;36.15;12.68;;;;;;;2.91;86.70;93854.47;5090572;28;20020;-34
2022/11/15 05:11:29;;;;;;;54.75;13.73;;;;;;;2.99;86.89;93848.06;5090966;28;20028;-34
2022/11/15 05:13:54;;;;;;;36.35;14.45;;;;;;;3.15;86.89;93854.06;5090634;28;20542;-34
2022/11/15 05:16:20;;;;;;;35.47;14.85;;;;;;;3.22;86.59;93853.59;5090576;28;20028;-34
2022/11/15 05:18:45;;;;;;;38.03;11.82;;;;;;;3.26;86.55;93859.56;5090534;28;20031;-34
2022/11/15 05:21:13;;;;;;;56.92;12.55;;;;;;;3.20;86.03;93850.63;5090758;28;20507;-34
2022/11/15 05:23:39;;;;;;;42.92;12.73;;;;;;;3.31;85.13;93856.13;5090754;28;20485;-34
2022/11/15 05:26:05;;;;;;;28.35;12.40;;;;;;;3.35;84.76;93853.91;5090486;28;20028;-34
2022/11/15 05:28:32;;;;;;;65.70;14.00;;;;;;;3.37;84.65;93851.41;5090265;28;20040;-34
2022/11/15 05:31:04;;;;;;;69.75;25.33;;;;;;;3.32;84.41;93854.88;5090188;28;20392;-34
2022/11/15 05:33:31;;;;;;;61.67;22.05;;;;;;;3.30;83.89;93841.72;5090419;28;20032;-34
2022/11/15 05:36:00;;;;;;;44.65;17.95;;;;;;;3.33;84.22;93862.59;5072652;28;20115;-34
2022/11/15 05:38:26;;;;;;;37.90;14.95;;;;;;;3.30;84.18;93851.88;5072502;28;20401;-34
2022/11/15 05:40:51;;;;;;;63.95;14.85;;;;;;;3.23;85.13;93853.09;5090189;28;20081;-34
2022/11/15 05:43:17;;;;;;;42.83;15.65;;;;;;;3.23;85.26;93855.13;5090386;28;20024;-34
2022/11/15 05:45:42;;;;;;;54.35;13.35;;;;;;;3.24;85.02;93856.59;5090066;28;20105;-34
2022/11/15 05:48:09;;;;;;;38.45;11.70;;;;;;;3.38;84.95;93852.94;5090213;28;20035;-34
2022/11/15 05:50:39;;;;;;;30.17;11.32;;;;;;;3.38;84.76;93858.38;5090027;28;20028;-34
2022/11/15 05:53:05;;;;;;;58.67;11.30;;;;;;;3.34;84.71;93855.88;5090197;28;20585;-34
2022/11/15 05:55:31;;;;;;;43.20;9.98;;;;;;;3.30;85.80;93866.28;5090426;28;20028;-34
2022/11/15 05:57:57;;;;;;;43.80;10.10;;;;;;;3.41;85.21;93865.56;5090091;28;20381;-34
2022/11/15 06:00:22;;;;;;;42.60;10.32;;;;;;;3.21;86.27;93865.75;5072079;28;20069;-34
2022/11/15 06:02:47;;;;;;;35.50;9.18;;;;;;;3.14;86.55;93861.50;5090073;28;20032;-34
2022/11/15 06:05:13;;;;;;;50.28;8.77;;;;;;;3.14;87.44;93866.25;5090203;28;20046;-34
2022/11/15 06:07:39;;;;;;;39.45;8.70;;;;;;;3.38;87.26;93866.56;5090297;28;20103;-34
2022/11/15 06:10:04;;;;;;;67.72;20.63;;;;;;;3.44;87.76;93859.13;5090181;28;20047;-34
2022/11/15 06:12:30;;;;;;;38.35;15.63;;;;;;;3.59;87.04;93865.88;5090162;28;20024;-34
2022/11/15 06:14:55;;;;;;;32.70;10.63;;;;;;;3.67;86.80;93860.66;5090018;28;20027;-34
2022/11/15 06:17:21;;;;;;;31.85;8.43;;;;;;;3.73;85.90;93867.63;5089926;28;20086;-34
2022/11/15 06:19:46;;;;;;;24.85;7.22;;;;;;;3.88;85.26;93866.66;5090015;28;20028;-34
2022/11/15 06:22:12;;;;;;;36.58;8.25;;;;;;;3.96;84.86;93871.16;5090159;28;20032;-34
2022/11/15 06:24:37;;;;;;;30.25;7.93;;;;;;;4.11;84.17;93866.19;5089836;28;20093;-34
2022/11/15 06:27:03;;;;;;;14.82;7.78;;;;;;;4.08;83.95;93863.69;5089579;28;20032;-34
2022/11/15 06:29:28;;;;;;;37.33;8.77;;;;;;;4.02;83.75;93871.88;5089649;28;20024;-34
2022/11/15 06:31:54;;;;;;;26.73;11.15;;;;;;;4.20;84.04;93873.38;5089873;28;20027;-34
2022/11/15 06:34:19;;;;;;;32.30;9.52;;;;;;;4.29;83.60;93876.59;5090173;28;20078;-34
2022/11/15 06:36:44;;;;;;;17.30;7.78;;;;;;;4.18;83.09;93870.41;5089699;28;20492;-34
2022/11/15 06:39:10;;;;;;;23.67;7.32;;;;;;;4.22;83.48;93873.63;5089676;28;20020;-34
2022/11/15 06:41:35;;;;;;;14.80;9.05;;;;;;;4.15;83.72;93871.38;5090335;28;20031;-34
2022/11/15 06:44:02;;;;;;;22.02;7.65;;;;;;;3.92;84.53;93862.41;5093312;28;20071;-34
2022/11/15 06:46:27;;;;;;;16.30;7.57;;;;;;;4.21;84.84;93864.69;5075265;28;20027;-34
2022/11/15 06:48:53;;;;;;;14.52;8.35;;;;;;;4.35;84.58;93876.59;5093582;28;20024;-34
2022/11/15 06:51:19;;;;;;;19.65;7.35;;;;;;;4.34;84.18;93837.59;5093280;28;20523;-34
2022/11/15 06:53:44;;;;;;;14.43;8.57;;;;;;;4.56;84.02;93856.69;5093538;28;20066;-34
2022/11/15 06:56:10;;;;;;;10.20;7.82;;;;;;;4.78;83.31;93861.38;5075540;28;20023;-34
2022/11/15 06:58:36;;;;;;;11.45;6.93;;;;;;;4.82;82.61;93861.09;5093432;28;20456;-34
2022/11/15 07:01:04;;;;;;;11.10;7.35;;;;;;;4.91;81.83;93858.09;5093435;28;20584;-34
2022/11/15 07:03:29;;;;;;;10.60;6.82;;;;;;;5.01;81.23;93854.59;5093074;28;20569;-34
2022/11/15 07:05:56;;;;;;;13.45;7.82;;;;;;;5.19;81.39;93856.75;5092961;28;20055;-34
2022/11/15 07:08:22;;;;;;;10.60;7.68;;;;;;;5.32;80.99;93854.22;5093258;28;20102;-34
2022/11/15 07:10:48;;;;;;;15.07;9.57;;;;;;;5.47;80.41;93856.63;5093137;28;20036;-34
2022/11/15 07:13:13;;;;;;;17.45;9.90;;;;;;;5.56;80.90;93850.13;5093200;28;20411;-34
2022/11/15 07:15:39;;;;;;;15.98;8.88;;;;;;;5.47;81.13;93845.69;5092876;28;20020;-34
2022/11/15 07:18:04;;;;;;;17.13;10.15;;;;;;;5.61;80.92;93852.81;5092793;28;20063;-34
2022/11/15 07:20:30;;;;;;;23.00;12.13;;;;;;;5.70;80.25;93849.78;5093008;28;20016;-34
2022/11/15 07:23:03;;;;;;;18.50;11.02;;;;;;;5.73;80.62;93848.78;5092709;28;20516;-34
2022/11/15 07:25:29;;;;;;;16.65;10.68;;;;;;;5.77;80.68;93845.75;5092488;28;20024;-34
2022/11/15 07:27:58;;;;;;;23.67;11.85;;;;;;;5.86;80.62;93846.22;5092901;28;20122;-34
2022/11/15 07:30:24;;;;;;;19.27;11.25;;;;;;;5.92;80.60;93841.44;5092378;28;20099;-34
2022/11/15 07:32:57;;;;;;;16.95;10.90;;;;;;;5.98;80.49;93849.59;5092498;28;20484;-34
2022/11/15 07:35:23;;;;;;;20.80;10.60;;;;;;;6.04;80.34;93844.84;5092437;28;20031;-34
2022/11/15 07:38:07;;;;;;;15.07;9.75;;;;;;;6.12;80.11;93843.03;5092493;28;20024;-34
2022/11/15 07:40:32;;;;;;;19.15;11.73;;;;;;;6.21;79.52;93848.22;5092328;28;20625;-34
2022/11/15 07:43:01;;;;;;;15.48;11.18;;;;;;;6.24;78.73;93852.66;5092365;28;20028;-34
2022/11/15 07:45:27;;;;;;;18.88;9.93;;;;;;;6.24;78.83;93851.94;5092221;28;20051;-34
2022/11/15 07:47:52;;;;;;;18.50;10.82;;;;;;;6.22;78.86;93855.16;5092168;28;20035;-34
2022/11/15 07:50:18;;;;;;;22.80;11.10;;;;;;;6.27;79.28;93853.63;5092530;28;20032;-34
2022/11/15 07:52:45;;;;;;;18.02;10.52;;;;;;;6.36;79.17;93859.56;5092283;28;20032;-34
2022/11/15 07:55:10;;;;;;;18.58;10.23;;;;;;;6.39;77.74;93852.31;5092161;28;20028;-34
2022/11/15 07:57:36;;;;;;;26.65;12.75;;;;;;;6.47;78.16;93850.47;5092349;28;20020;-34
2022/11/15 08:00:05;;;;;;;17.92;11.98;;;;;;;6.50;77.93;93855.69;5091983;28;20032;-34
2022/11/15 08:02:30;;;;;;;;;;;;;;;6.55;78.24;93860.38;5092411;28;20078;-34
2022/11/15 08:04:56;;;;;;;32.97;20.25;;;;;;;6.52;77.75;93855.19;5091854;28;19935;-34
2022/11/15 08:07:21;;;;;;;45.70;25.92;;;;;;;6.61;78.26;93860.31;5091891;28;20031;-34
2022/11/15 08:09:47;;;;;;;29.80;17.45;;;;;;;6.65;77.75;93858.03;5092026;28;20024;-34
2022/11/15 08:12:12;;;;;;;22.25;14.13;;;;;;;6.70;77.40;93858.00;5091764;28;20040;-34
2022/11/15 08:14:38;;;;;;;17.50;9.90;;;;;;;6.68;76.74;93851.53;5091627;28;20039;-34
2022/11/15 08:17:03;;;;;;;16.13;10.90;;;;;;;6.42;77.85;93849.28;5091679;28;20093;-34
2022/11/15 08:19:29;;;;;;;19.38;9.57;;;;;;;6.44;78.03;93851.50;5091743;28;20058;-34
2022/11/15 08:21:54;;;;;;;20.02;12.35;;;;;;;6.37;78.91;93846.56;5091525;28;20110;-34
2022/11/15 08:24:20;;;;;;;14.85;8.52;;;;;;;6.38;78.64;93843.31;5091593;28;20035;-34
2022/11/15 08:26:45;;;;;;;26.63;15.15;;;;;;;6.39;79.54;93838.59;5091372;28;20059;-34
2022/11/15 08:29:11;;;;;;;19.13;12.43;;;;;;;6.50;80.03;93828.25;5091247;28;20028;-34
2022/11/15 08:31:36;;;;;;;14.60;9.38;;;;;;;6.59;80.35;93824.41;5091410;28;20077;-34
2022/11/15 08:34:03;;;;;;;16.48;10.15;;;;;;;6.81;79.47;93824.19;5091349;28;20035;-34
2022/11/15 08:36:29;;;;;;;17.42;13.43;;;;;;;7.02;78.33;93821.75;5091620;28;20460;-34
2022/11/15 08:38:54;;;;;;;17.20;11.98;;;;;;;7.18;78.39;93813.28;5091533;28;20024;-34
2022/11/15 08:41:27;;;;;;;11.82;8.00;;;;;;;7.30;77.55;93816.63;5091237;28;20089;-34
2022/11/15 08:43:52;;;;;;;13.60;9.13;;;;;;;7.52;77.38;93810.84;5090952;28;20125;-34
2022/11/15 08:46:18;;;;;;;14.02;9.20;;;;;;;7.58;76.26;93806.03;5091199;28;20057;-34
2022/11/15 08:48:44;;;;;;;10.57;7.88;;;;;;;7.76;75.75;93802.53;5090877;28;20055;-34
2022/11/15 08:51:10;;;;;;;10.95;8.32;;;;;;;7.90;76.43;93795.84;5091334;28;20112;-34
2022/11/15 08:53:36;;;;;;;10.38;8.27;;;;;;;8.21;75.04;93800.56;5090911;28;20044;-34
2022/11/15 08:56:02;;;;;;;8.77;6.78;;;;;;;8.55;73.32;93797.28;5090935;28;20119;-34
2022/11/15 08:58:28;;;;;;;10.77;7.80;;;;;;;8.51;73.61;93797.59;5090849;28;20024;-34
2022/11/15 09:00:54;;;;;;;16.33;10.52;;;;;;;8.80;73.09;93799.34;5090816;28;20077;-34
2022/11/15 09:03:19;;;;;;;12.55;8.27;;;;;;;8.92;71.42;93805.38;5090858;28;20028;-34
2022/11/15 09:05:45;;;;;;;8.02;6.63;;;;;;;8.90;71.63;93805.16;5090213;28;20081;-34
2022/11/15 09:08:12;;;;;;;8.27;5.80;;;;;;;8.97;70.92;93802.50;5091049;28;20028;-34
2022/11/15 09:10:38;;;;;;;8.75;6.45;;;;;;;8.83;72.05;93803.03;5090833;28;20107;-34
2022/11/15 09:13:03;;;;;;;7.32;5.85;;;;;;;8.61;72.96;93795.19;5090931;28;20099;-34
2022/11/15 09:15:29;;;;;;;8.10;6.43;;;;;;;8.79;73.19;93789.56;5090941;28;20460;-34
2022/11/15 09:17:58;;;;;;;8.60;7.05;;;;;;;9.10;70.90;93787.97;5090843;28;20496;-34
2022/11/15 09:20:23;;;;;;;;;;;;;;;9.42;70.98;93787.84;5091098;28;20523;-34
2022/11/15 09:22:48;;;;;;;8.23;6.47;;;;;;;9.54;69.45;93781.56;5090478;28;19910;-34
2022/11/15 09:25:17;;;;;;;8.00;6.47;;;;;;;9.44;68.62;93782.56;5090405;28;20097;-34
2022/11/15 09:27:43;;;;;;;10.05;6.07;;;;;;;9.42;69.08;93787.84;5090512;28;20043;-34
2022/11/15 09:30:09;;;;;;;14.38;7.45;;;;;;;9.41;69.89;93787.09;5090574;28;20036;-34
2022/11/15 09:32:35;;;;;;;11.05;7.13;;;;;;;9.37;69.95;93775.66;5090235;28;20055;-34
2022/11/15 09:35:01;;;;;;;9.48;7.15;;;;;;;9.40;69.58;93780.09;5090304;28;20028;-34
2022/11/15 09:37:27;;;;;;;13.23;8.50;;;;;;;9.18;70.02;93767.53;5090373;28;20107;-34
2022/11/15 09:39:53;;;;;;;11.23;7.53;;;;;;;9.26;70.15;93764.88;5090137;28;20052;-34
2022/11/15 09:42:27;;;;;;;12.68;6.93;;;;;;;9.42;69.74;93763.06;5090599;28;20565;-34
2022/11/15 09:45:14;;;;;;;9.15;6.80;;;;;;;9.37;69.81;93761.91;5090193;28;20061;-34
2022/11/15 09:47:58;;;;;;;8.65;6.40;;;;;;;9.52;69.10;93764.81;5090365;28;20530;-34
2022/11/15 09:50:48;;;;;;;11.77;8.50;;;;;;;9.44;69.51;93752.22;5090454;28;20028;-34
2022/11/15 09:53:29;;;;;;;9.00;7.47;;;;;;;9.72;69.46;93747.56;5090435;28;20085;-34
2022/11/15 09:56:03;;;;;;;11.43;8.95;;;;;;;9.80;68.58;93742.88;5072097;28;20031;-34
2022/11/15 09:58:46;;;;;;;7.63;6.28;;;;;;;10.15;67.26;93741.59;5090132;28;20020;-34
2022/11/15 10:01:17;;;;;;;9.88;6.97;;;;;;;10.49;66.09;93738.72;5072199;28;20496;-34
2022/11/15 10:03:45;;;;;;;13.68;7.10;;;;;;;11.22;64.84;93727.91;5072100;28;20024;-34
2022/11/15 10:06:21;;;;;;;8.40;6.50;;;;;;;12.29;61.18;93724.13;5071927;28;20539;-34
2022/11/15 10:09:09;;;;;;;8.40;7.20;;;;;;;13.27;56.83;93723.28;5071902;28;20107;-34
2022/11/15 10:11:36;;;;;;;8.15;7.10;;;;;;;13.19;55.93;93714.97;5072374;28;20020;-34
2022/11/15 10:14:20;;;;;;;8.57;7.10;;;;;;;13.69;55.24;93713.84;5072141;28;20065;-34
2022/11/15 10:16:54;;;;;;;8.13;6.10;;;;;;;14.64;51.91;93713.56;5072855;28;20028;-34
2022/11/15 10:19:28;;;;;;;8.43;6.90;;;;;;;14.57;52.27;93713.66;5094339;28;20031;-34
2022/11/15 10:22:05;;;;;;;9.52;7.47;;;;;;;15.17;51.44;93707.50;5093992;28;20036;-34
2022/11/15 10:24:35;;;;;;;10.57;8.13;;;;;;;15.44;51.05;93707.63;5094108;28;20031;-34
2022/11/15 10:27:01;;;;;;;10.20;7.90;;;;;;;16.37;48.11;93701.69;5075502;28;20024;-35
2022/11/15 10:29:26;;;;;;;11.20;7.85;;;;;;;17.25;46.08;93691.66;5093922;28;20449;-35
2022/11/15 10:31:52;;;;;;;9.45;7.78;;;;;;;18.04;44.65;93688.94;5093776;28;20020;-34
2022/11/15 10:34:22;;;;;;;9.07;7.13;;;;;;;18.66;41.95;93676.53;5093619;28;20027;-35
2022/11/15 10:37:03;;;;;;;14.05;11.20;;;;;;;19.08;41.61;93673.00;5073629;28;20081;-35
2022/11/15 10:39:29;;;;;;;10.05;8.20;;;;;;;19.61;40.27;93669.53;5073295;28;20017;-35
2022/11/15 10:41:55;;;;;;;7.63;6.68;;;;;;;20.04;38.68;93663.81;5055706;28;20032;-34
2022/11/15 10:44:24;;;;;;;8.88;6.57;;;;;;;20.30;37.70;93660.59;5073105;28;20044;-35
2022/11/15 10:46:56;;;;;;;8.23;7.32;;;;;;;19.75;38.61;93660.56;5073153;28;20036;-34
2022/11/15 10:49:28;;;;;;;9.13;6.68;;;;;;;19.57;39.20;93652.47;5073118;28;20043;-35
2022/11/15 10:51:57;;;;;;;7.70;6.90;;;;;;;19.77;38.42;93641.09;5055878;28;20029;-35
2022/11/15 10:54:33;;;;;;;7.88;6.85;;;;;;;19.16;39.68;93648.38;5055609;28;20412;-35
2022/11/15 10:57:01;;;;;;;10.23;8.55;;;;;;;19.21;40.03;93650.06;5073308;28;20491;-35
2022/11/15 10:59:32;;;;;;;8.18;7.28;;;;;;;19.33;39.03;93639.69;5055417;28;20101;-35
2022/11/15 11:01:57;;;;;;;8.30;7.15;;;;;;;19.00;39.39;93641.69;5055110;28;20028;-34
2022/11/15 11:04:23;;;;;;;10.43;7.40;;;;;;;18.66;40.58;93636.63;5072840;28;20020;-34
2022/11/15 11:06:57;;;;;;;8.27;7.18;;;;;;;18.73;40.21;93630.13;5090031;28;20038;-35
2022/11/15 11:09:25;;;;;;;9.05;7.45;;;;;;;18.63;40.34;93626.63;5093011;28;20102;-34
2022/11/15 11:11:51;;;;;;;9.10;7.97;;;;;;;18.77;40.07;93622.72;5093298;28;20085;-35
2022/11/15 11:14:30;;;;;;;9.85;8.40;;;;;;;18.38;40.76;93613.06;5092904;28;20034;-34
2022/11/15 11:17:23;;;;;;;8.77;7.70;;;;;;;18.50;40.34;93599.19;5093071;28;20085;-34
2022/11/15 11:19:57;;;;;;;9.45;6.95;;;;;;;18.14;41.42;93600.22;5075234;28;20031;-34
2022/11/15 11:22:42;;;;;;;9.10;8.00;;;;;;;18.11;41.18;93601.41;5093046;28;20126;-34
2022/11/15 11:25:45;;;;;;;11.45;8.02;;;;;;;17.78;41.76;93590.06;5092374;28;20073;-35
2022/11/15 11:28:33;;;;;;;10.40;8.15;;;;;;;17.44;42.55;93588.38;5053859;28;20405;-34
2022/11/15 11:31:37;;;;;;;10.13;8.15;;;;;;;16.43;44.54;93583.06;5072815;28;20047;-34
2022/11/15 11:34:35;;;;;;;11.65;9.07;;;;;;;16.17;45.70;93581.09;4992873;28;20428;-34
2022/11/15 11:37:12;;;;;;;10.80;8.32;;;;;;;15.78;46.99;93576.72;5091918;28;20047;-34
2022/11/15 11:40:01;;;;;;;12.90;8.35;;;;;;;16.22;46.63;93571.72;5074384;28;20089;-34
2022/11/15 11:42:58;;;;;;;11.25;9.05;;;;;;;15.98;45.46;93563.59;5074689;28;20038;-34
2022/11/15 11:45:36;;;;;;;9.68;7.97;;;;;;;16.05;46.30;93559.97;5074797;28;20056;-34
2022/11/15 11:48:13;;;;;;;8.75;7.53;;;;;;;16.29;45.04;93558.97;5092281;28;20024;-34
2022/11/15 11:50:38;;;;;;;10.57;8.48;;;;;;;15.87;46.39;93554.47;5092018;28;20496;-34